Argyle, Texas
Current Conditions -  °F | °C
As of 4:53 PM on Sunday 21 Dec 2014 (Local Time) from KDTO Reporting Station
Overcast Overcast  
Wind Chill: 11°   Ceiling: 1800
Heat Index: 11°   Visibility: 8mi
Dew Point:   Wind: 12mph
Humidity: 83%   Direction: 160°SSE
Pressure: 29.83"   Gusts: NA
Location:  33.12°N, 97.18°W
Report Text: KDTO 212253Z 16010KT 8SM OVC018 11/08 A2983 RMK AO2 SLP099 T01060078
Loading
Personal Weather Stations






























Interactive Weather Map New forecast layout! Learn more

10-Day Weather Forecast

Advertisements
Track Severe Weather on mobile